Time;durP1;ratioP1;P1;durP2;ratioP2;P2;SDS_P1;SDS_P2;PMS_P1;PMS_P2;Temp;Humidity;BMP_temperature;BMP_pressure;BME280_temperature;BME280_humidity;BME280_pressure;Samples;Min_cycle;Max_cycle;Signal;HPM_P1;HPM_P2
2022/08/31 00:04:51;;;;;;;3.30;2.83;;;16.50;99.90;;;;;;5076843;28;20204;-71
2022/08/31 00:07:18;;;;;;;5.70;2.67;;;16.60;99.90;;;;;;5060083;28;20232;-71
2022/08/31 00:09:45;;;;;;;4.83;3.13;;;16.50;99.90;;;;;;5080668;28;20227;-71
2022/08/31 00:12:12;;;;;;;5.07;2.60;;;16.50;99.90;;;;;;5054761;28;20668;-71
2022/08/31 00:14:39;;;;;;;4.17;3.00;;;16.50;99.90;;;;;;5075552;28;20204;-72
2022/08/31 00:17:06;;;;;;;4.40;3.07;;;16.50;99.90;;;;;;5080809;28;20218;-71
2022/08/31 00:19:32;;;;;;;4.97;2.70;;;16.40;99.90;;;;;;5063513;28;20664;-71
2022/08/31 00:21:59;;;;;;;8.23;2.67;;;16.40;99.90;;;;;;5077703;28;20290;-71
2022/08/31 00:24:26;;;;;;;4.07;3.23;;;16.40;99.90;;;;;;5075207;28;20205;-70
2022/08/31 00:26:53;;;;;;;4.50;2.87;;;16.40;99.90;;;;;;5075048;28;20330;-73
2022/08/31 00:29:20;;;;;;;4.57;2.63;;;16.30;99.90;;;;;;5074098;28;20208;-71
2022/08/31 00:31:47;;;;;;;4.37;2.73;;;16.30;99.90;;;;;;5080511;28;20648;-70
2022/08/31 00:34:14;;;;;;;5.83;2.70;;;16.30;99.90;;;;;;5077801;28;20201;-72
2022/08/31 00:36:41;;;;;;;3.43;2.50;;;16.30;99.90;;;;;;5075563;28;20276;-71
2022/08/31 00:39:08;;;;;;;3.47;3.07;;;16.30;99.90;;;;;;5078227;28;20193;-72
2022/08/31 00:41:37;;;;;;;4.73;2.70;;;16.30;99.90;;;;;;5066045;28;20239;-70
2022/08/31 00:44:07;;;;;;;7.67;3.00;;;16.30;99.90;;;;;;5061408;28;20204;-71
2022/08/31 00:46:39;;;;;;;5.97;2.90;;;16.20;99.90;;;;;;5077483;28;20200;-70
2022/08/31 00:49:25;;;;;;;3.83;2.80;;;16.20;99.90;;;;;;5077301;28;20204;-71
2022/08/31 00:52:08;;;;;;;3.13;2.70;;;16.20;99.90;;;;;;5062477;28;20282;-71
2022/08/31 00:54:42;;;;;;;3.37;2.73;;;16.10;99.90;;;;;;5074079;28;20672;-72
2022/08/31 00:57:11;;;;;;;3.70;2.93;;;16.10;99.90;;;;;;5073914;28;20222;-72
2022/08/31 00:59:43;;;;;;;3.10;2.80;;;16.00;99.90;;;;;;5078464;28;20214;-72
2022/08/31 01:02:10;;;;;;;3.13;2.83;;;16.00;99.90;;;;;;5076942;28;20254;-71
2022/08/31 01:04:37;;;;;;;4.10;2.63;;;15.90;99.90;;;;;;5073147;28;20757;-71
2022/08/31 01:07:06;;;;;;;3.37;3.07;;;15.90;99.90;;;;;;5077023;28;20220;-71
2022/08/31 01:09:39;;;;;;;4.30;2.80;;;15.90;99.90;;;;;;5074919;28;20207;-70
2022/08/31 01:12:21;;;;;;;5.27;2.77;;;15.80;99.90;;;;;;5075445;28;20226;-72
2022/08/31 01:14:48;;;;;;;3.27;2.80;;;15.80;99.90;;;;;;5076114;28;20696;-71
2022/08/31 01:17:16;;;;;;;3.60;2.77;;;15.80;99.90;;;;;;5082866;28;20789;-70
2022/08/31 01:19:43;;;;;;;3.47;2.87;;;15.80;99.90;;;;;;5076242;28;20230;-71
2022/08/31 01:22:31;;;;;;;2.67;2.47;;;15.80;99.90;;;;;;5080062;28;20265;-70
2022/08/31 01:24:59;;;;;;;2.43;2.23;;;15.80;99.90;;;;;;5061394;28;20204;-70
2022/08/31 01:27:31;;;;;;;4.00;2.93;;;15.70;99.90;;;;;;5065826;28;20235;-71
2022/08/31 01:30:04;;;;;;;3.97;2.53;;;15.70;99.90;;;;;;5076119;28;20208;-71
2022/08/31 01:32:31;;;;;;;5.47;3.13;;;15.80;99.90;;;;;;5074581;28;20212;-71
2022/08/31 01:34:58;;;;;;;6.73;2.57;;;15.70;99.90;;;;;;5072183;28;20235;-70
2022/08/31 01:37:25;;;;;;;3.37;2.90;;;16.00;99.90;;;;;;5075505;28;20220;-71
2022/08/31 01:39:56;;;;;;;4.53;2.87;;;15.70;99.90;;;;;;5076497;28;20201;-72
2022/08/31 01:42:23;;;;;;;4.43;2.73;;;15.60;99.90;;;;;;5063302;28;20228;-70
2022/08/31 01:45:00;;;;;;;3.07;2.70;;;;;;;;;;5076703;28;20203;-70
2022/08/31 01:47:27;;;;;;;3.73;2.90;;;15.50;99.90;;;;;;5078193;28;20698;-71
2022/08/31 01:49:54;;;;;;;5.13;2.87;;;15.50;99.90;;;;;;5075130;28;20207;-70
2022/08/31 01:52:25;;;;;;;6.70;3.00;;;15.40;99.90;;;;;;5075156;28;20231;-71
2022/08/31 01:54:54;;;;;;;5.90;3.10;;;15.40;99.90;;;;;;5073070;28;20667;-71
2022/08/31 01:57:21;;;;;;;5.50;2.90;;;15.40;99.90;;;;;;5074983;28;20607;-71
2022/08/31 02:00:02;;;;;;;5.30;3.10;;;15.40;99.90;;;;;;5074986;28;20204;-71
2022/08/31 02:02:29;;;;;;;4.97;2.80;;;15.30;99.90;;;;;;5063763;28;20331;-71
2022/08/31 02:04:57;;;;;;;6.53;3.00;;;15.30;99.90;;;;;;5077783;28;20319;-71
2022/08/31 02:07:24;;;;;;;3.03;2.77;;;15.30;99.90;;;;;;5079391;28;20225;-71
2022/08/31 02:09:53;;;;;;;3.80;3.40;;;15.30;99.90;;;;;;5082929;28;20200;-71
2022/08/31 02:12:20;;;;;;;4.13;2.73;;;15.20;99.90;;;;;;5079808;28;20672;-70
2022/08/31 02:14:47;;;;;;;4.27;3.30;;;15.20;99.90;;;;;;5082570;28;20663;-70
2022/08/31 02:17:14;;;;;;;5.40;3.10;;;15.20;99.90;;;;;;5077084;28;20620;-71
2022/08/31 02:19:41;;;;;;;4.80;2.70;;;15.10;99.90;;;;;;5061682;28;20315;-70
2022/08/31 02:22:07;;;;;;;4.13;3.20;;;15.20;99.90;;;;;;5081241;28;20250;-71
2022/08/31 02:24:34;;;;;;;4.87;2.90;;;15.20;99.90;;;;;;5078185;28;20204;-71
2022/08/31 02:27:01;;;;;;;6.20;3.10;;;15.10;99.90;;;;;;5076483;28;20744;-71
2022/08/31 02:29:28;;;;;;;3.43;3.00;;;15.10;99.90;;;;;;5077449;28;20243;-70
2022/08/31 02:31:57;;;;;;;6.47;3.00;;;15.10;99.90;;;;;;5080016;28;20243;-70
2022/08/31 02:34:24;;;;;;;3.33;3.03;;;15.10;99.90;;;;;;5077713;28;20205;-71
2022/08/31 02:36:51;;;;;;;3.90;3.30;;;15.00;99.90;;;;;;5063087;28;20243;-71
2022/08/31 02:39:18;;;;;;;3.83;3.23;;;15.00;99.90;;;;;;5078128;28;20541;-72
2022/08/31 02:41:44;;;;;;;4.37;3.37;;;15.00;99.90;;;;;;5083255;28;20704;-70
2022/08/31 02:44:11;;;;;;;3.93;3.20;;;14.90;99.90;;;;;;5077072;28;20266;-71
2022/08/31 02:46:38;;;;;;;4.77;2.97;;;14.90;99.90;;;;;;5083780;28;20303;-70
2022/08/31 02:49:05;;;;;;;4.23;3.60;;;14.90;99.90;;;;;;5076050;28;20581;-70
2022/08/31 02:51:32;;;;;;;3.50;2.90;;;14.80;99.90;;;;;;5080571;28;20221;-71
2022/08/31 02:53:59;;;;;;;5.93;3.30;;;14.30;99.90;;;;;;5077718;28;20548;-70
2022/08/31 02:56:26;;;;;;;3.53;3.03;;;14.70;99.90;;;;;;5080783;28;20231;-71
2022/08/31 02:58:53;;;;;;;3.20;2.67;;;14.80;99.90;;;;;;5077671;28;20280;-70
2022/08/31 03:01:22;;;;;;;6.43;3.33;;;14.80;99.90;;;;;;5081557;28;20651;-70
2022/08/31 03:03:49;;;;;;;3.53;2.67;;;14.80;99.90;;;;;;5076223;28;20226;-70
2022/08/31 03:06:17;;;;;;;4.23;2.80;;;14.70;99.90;;;;;;5076523;28;20269;-71
2022/08/31 03:08:45;;;;;;;3.37;2.77;;;14.70;99.90;;;;;;5071992;28;20192;-71
2022/08/31 03:11:13;;;;;;;3.83;2.80;;;14.70;99.90;;;;;;5077019;28;20200;-71
2022/08/31 03:13:40;;;;;;;3.33;2.40;;;14.70;99.90;;;;;;5081362;28;20200;-72
2022/08/31 03:16:11;;;;;;;2.67;2.40;;;14.70;99.90;;;;;;5063656;28;20204;-70
2022/08/31 03:18:37;;;;;;;3.90;2.40;;;14.60;99.90;;;;;;5065129;28;20284;-70
2022/08/31 03:21:05;;;;;;;2.47;2.10;;;14.60;99.90;;;;;;5067170;28;20227;-70
2022/08/31 03:23:31;;;;;;;2.60;2.40;;;14.60;99.90;;;;;;5077503;28;20224;-71
2022/08/31 03:25:58;;;;;;;4.00;2.67;;;14.70;99.90;;;;;;5076267;28;20212;-71
2022/08/31 03:28:25;;;;;;;4.50;2.33;;;14.70;99.90;;;;;;5076063;28;20329;-71
2022/08/31 03:30:52;;;;;;;4.80;2.33;;;14.60;99.90;;;;;;5078310;28;20196;-71
2022/08/31 03:33:19;;;;;;;2.90;2.00;;;14.50;99.90;;;;;;5078586;28;20223;-71
2022/08/31 03:35:46;;;;;;;2.23;2.03;;;;;;;;;;5073894;28;20754;-70
2022/08/31 03:38:14;;;;;;;2.83;1.97;;;14.60;99.90;;;;;;5063495;28;20336;-71
2022/08/31 03:40:43;;;;;;;3.10;2.00;;;14.40;99.90;;;;;;5077525;28;20622;-70
2022/08/31 03:43:10;;;;;;;2.77;2.10;;;14.40;99.90;;;;;;5063723;28;20224;-71
2022/08/31 03:45:40;;;;;;;2.83;1.80;;;14.40;99.90;;;;;;5079051;28;20242;-69
2022/08/31 03:48:07;;;;;;;3.07;2.20;;;14.40;99.90;;;;;;5076295;28;20227;-71
2022/08/31 03:50:39;;;;;;;4.53;1.87;;;14.30;99.90;;;;;;5079320;28;20215;-71
2022/08/31 03:53:07;;;;;;;2.00;1.80;;;14.30;99.90;;;;;;5078398;28;20256;-71
2022/08/31 03:55:38;;;;;;;2.40;2.20;;;14.30;99.90;;;;;;5074956;28;20687;-71
2022/08/31 03:58:06;;;;;;;3.27;1.90;;;14.30;99.90;;;;;;5077583;28;20699;-70
2022/08/31 04:00:34;;;;;;;3.47;2.30;;;14.30;99.90;;;;;;5080654;28;20623;-71
2022/08/31 04:03:00;;;;;;;3.07;2.03;;;14.20;99.90;;;;;;5076150;28;20228;-70
2022/08/31 04:05:29;;;;;;;5.80;2.30;;;14.20;99.90;;;;;;5077029;28;20199;-70
2022/08/31 04:07:56;;;;;;;2.00;1.70;;;14.20;99.90;;;;;;5076939;28;20240;-70
2022/08/31 04:10:23;;;;;;;1.87;1.70;;;14.20;99.90;;;;;;5080218;28;20682;-71
2022/08/31 04:12:50;;;;;;;2.13;1.90;;;14.20;99.90;;;;;;5073891;28;20274;-70
2022/08/31 04:15:18;;;;;;;2.00;1.80;;;14.20;99.90;;;;;;5085449;28;20624;-71
2022/08/31 04:17:46;;;;;;;3.27;1.83;;;14.20;99.90;;;;;;5079327;28;20436;-71
2022/08/31 04:20:13;;;;;;;3.27;2.20;;;14.10;99.90;;;;;;5081402;28;20233;-71
2022/08/31 04:22:40;;;;;;;2.80;2.30;;;14.10;99.90;;;;;;5074606;28;20236;-71
2022/08/31 04:25:09;;;;;;;3.73;1.70;;;14.10;99.90;;;;;;5078474;28;20254;-70
2022/08/31 04:27:39;;;;;;;5.43;2.10;;;14.10;99.90;;;;;;5069366;28;20960;-71
2022/08/31 04:30:08;;;;;;;2.53;2.07;;;14.00;99.90;;;;;;5077950;28;20214;-71
2022/08/31 04:32:35;;;;;;;4.57;3.17;;;14.00;99.90;;;;;;5080396;28;20243;-71
2022/08/31 04:35:02;;;;;;;2.30;1.83;;;14.00;99.90;;;;;;5061122;28;20189;-71
2022/08/31 04:37:29;;;;;;;2.33;1.93;;;14.00;99.90;;;;;;5072012;28;20216;-71
2022/08/31 04:39:57;;;;;;;7.07;2.43;;;14.00;99.90;;;;;;5069110;28;20203;-70
2022/08/31 04:42:29;;;;;;;3.97;2.10;;;14.00;99.90;;;;;;5077074;28;20227;-71
2022/08/31 04:44:55;;;;;;;2.93;2.37;;;13.90;99.90;;;;;;5076847;28;20624;-71
2022/08/31 04:47:22;;;;;;;4.37;1.97;;;13.90;99.90;;;;;;5076349;28;20572;-70
2022/08/31 04:49:49;;;;;;;2.70;1.67;;;13.90;99.90;;;;;;5076158;28;20473;-70
2022/08/31 04:52:16;;;;;;;2.20;1.83;;;13.90;99.90;;;;;;5077424;28;20743;-70
2022/08/31 04:54:45;;;;;;;4.10;1.90;;;13.80;99.90;;;;;;5073873;28;20695;-71
2022/08/31 04:57:12;;;;;;;4.50;1.90;;;13.80;99.90;;;;;;5080247;28;20555;-71
2022/08/31 04:59:39;;;;;;;2.10;1.90;;;13.80;99.90;;;;;;5073792;28;20215;-70
2022/08/31 05:02:06;;;;;;;1.87;1.57;;;13.80;99.90;;;;;;5061421;28;20206;-70
2022/08/31 05:04:33;;;;;;;5.30;1.80;;;14.30;99.90;;;;;;5060145;28;20196;-71
2022/08/31 05:07:00;;;;;;;2.43;1.87;;;13.80;99.90;;;;;;5060371;28;20225;-70
2022/08/31 05:09:27;;;;;;;3.43;1.63;;;13.80;99.90;;;;;;5077962;28;20203;-70
2022/08/31 05:11:54;;;;;;;2.93;1.63;;;13.80;99.90;;;;;;5076007;28;20656;-70
2022/08/31 05:14:23;;;;;;;2.13;1.93;;;13.80;99.90;;;;;;5071723;28;20212;-70
2022/08/31 05:16:50;;;;;;;3.83;2.13;;;13.80;99.90;;;;;;5076483;28;20224;-71
2022/08/31 05:19:19;;;;;;;2.73;1.80;;;13.80;99.90;;;;;;5062625;28;20200;-71
2022/08/31 05:21:46;;;;;;;5.37;1.60;;;14.00;99.90;;;;;;5074105;28;20220;-71
2022/08/31 05:24:16;;;;;;;2.70;1.80;;;13.80;99.90;;;;;;5076087;28;20698;-71
2022/08/31 05:26:49;;;;;;;2.10;1.47;;;13.90;99.90;;;;;;5061028;28;20203;-71
2022/08/31 05:29:18;;;;;;;2.07;1.70;;;13.90;99.90;;;;;;5073732;28;20258;-71
2022/08/31 05:31:45;;;;;;;2.03;1.63;;;13.80;99.90;;;;;;5067401;28;20269;-71
2022/08/31 05:34:18;;;;;;;2.87;1.60;;;13.90;99.90;;;;;;5074945;28;20220;-71
2022/08/31 05:36:51;;;;;;;2.63;1.70;;;13.80;99.90;;;;;;5073085;28;20220;-70
2022/08/31 05:39:18;;;;;;;3.13;1.93;;;13.80;99.90;;;;;;5062483;28;20231;-74
2022/08/31 05:41:46;;;;;;;2.90;1.50;;;14.00;99.90;;;;;;5083819;28;20203;-70
2022/08/31 05:44:14;;;;;;;2.63;1.77;;;13.90;99.90;;;;;;5083095;28;20226;-71
2022/08/31 05:46:41;;;;;;;1.60;1.33;;;13.90;99.90;;;;;;5063742;28;20221;-70
2022/08/31 05:49:09;;;;;;;2.67;1.33;;;13.90;99.90;;;;;;5080131;28;20215;-70
2022/08/31 05:51:38;;;;;;;1.90;1.57;;;13.90;99.90;;;;;;5077901;28;20216;-69
2022/08/31 05:54:06;;;;;;;1.63;1.50;;;14.00;99.90;;;;;;5083914;28;20222;-71
2022/08/31 05:56:34;;;;;;;3.03;1.50;;;14.00;99.90;;;;;;5084424;28;20288;-70
2022/08/31 05:59:01;;;;;;;1.70;1.57;;;14.00;99.90;;;;;;5065748;28;20285;-69
2022/08/31 06:01:35;;;;;;;3.13;1.60;;;14.00;99.90;;;;;;5081026;28;20200;-70
2022/08/31 06:04:03;;;;;;;4.20;1.60;;;14.10;99.90;;;;;;5079118;28;20231;-69
2022/08/31 06:06:30;;;;;;;4.13;1.70;;;14.10;99.90;;;;;;5076636;28;20215;-71
2022/08/31 06:08:57;;;;;;;2.13;1.60;;;14.10;99.90;;;;;;5078488;28;20268;-71
2022/08/31 06:11:28;;;;;;;3.17;1.70;;;14.20;99.90;;;;;;5075641;28;20282;-71
2022/08/31 06:13:57;;;;;;;2.63;1.73;;;14.20;99.90;;;;;;5063706;28;20656;-71
2022/08/31 06:16:25;;;;;;;2.97;1.70;;;14.30;99.90;;;;;;5060806;28;20201;-71
2022/08/31 06:18:54;;;;;;;2.70;1.70;;;14.40;99.90;;;;;;5079087;28;20819;-70
2022/08/31 06:21:24;;;;;;;1.70;1.60;;;14.40;99.90;;;;;;5076282;28;20223;-70
2022/08/31 06:23:53;;;;;;;4.53;1.77;;;14.50;99.90;;;;;;5084177;28;20740;-70
2022/08/31 06:26:21;;;;;;;2.20;1.30;;;14.60;99.90;;;;;;5058598;28;20625;-70
2022/08/31 06:28:51;;;;;;;1.93;1.70;;;14.70;99.90;;;;;;5078602;28;20693;-69
2022/08/31 06:31:22;;;;;;;2.33;1.57;;;15.30;99.90;;;;;;5079314;28;20212;-71
2022/08/31 06:33:50;;;;;;;4.28;1.52;;;;;;;;;;5084310;28;20238;-71
2022/08/31 06:36:19;;;;;;;3.85;1.30;;;;;;;;;;5077700;28;20603;-71
2022/08/31 06:38:47;;;;;;;2.22;1.35;;;18.60;99.90;;;;;;5082762;28;20291;-71
2022/08/31 06:41:35;;;;;;;1.90;1.33;;;19.70;99.90;;;;;;5073688;28;20208;-72
2022/08/31 06:44:09;;;;;;;1.33;1.20;;;20.70;99.90;;;;;;5083853;28;20228;-71
2022/08/31 06:46:38;;;;;;;3.22;1.50;;;21.70;99.90;;;;;;5083189;28;20247;-72
2022/08/31 06:49:06;;;;;;;1.20;0.90;;;21.80;99.90;;;;;;5080467;28;20212;-72
2022/08/31 06:51:36;;;;;;;1.83;1.10;;;21.90;99.90;;;;;;5078726;28;20243;-71
2022/08/31 06:54:09;;;;;;;1.55;1.17;;;22.00;99.90;;;;;;5078829;28;20266;-73
2022/08/31 06:56:58;;;;;;;2.60;1.55;;;22.30;99.90;;;;;;5070429;28;20232;-72
2022/08/31 06:59:26;;;;;;;1.25;1.15;;;22.90;99.90;;;;;;5074832;28;20699;-71
2022/08/31 07:01:56;;;;;;;2.10;1.13;;;23.50;99.90;;;;;;5083451;28;20715;-72
2022/08/31 07:04:23;;;;;;;2.35;1.20;;;23.80;99.90;;;;;;5082229;28;20232;-72
2022/08/31 07:06:50;;;;;;;3.67;1.23;;;23.90;99.90;;;;;;5077667;28;20219;-70
2022/08/31 07:09:17;;;;;;;1.45;1.35;;;23.70;99.90;;;;;;5080739;28;20238;-70
2022/08/31 07:11:45;;;;;;;4.18;1.10;;;23.70;99.90;;;;;;5077589;28;20239;-71
2022/08/31 07:14:17;;;;;;;2.67;1.67;;;23.80;99.90;;;;;;5079472;28;20214;-72
2022/08/31 07:16:45;;;;;;;1.92;1.30;;;;;;;;;;5076767;28;20236;-71
2022/08/31 07:19:13;;;;;;;1.90;1.20;;;24.20;99.90;;;;;;5079401;28;20333;-72
2022/08/31 07:21:41;;;;;;;2.40;1.60;;;23.80;99.90;;;;;;5061844;28;20669;-72
2022/08/31 07:24:10;;;;;;;1.38;1.23;;;24.00;99.90;;;;;;5084560;28;20259;-72
2022/08/31 07:26:41;;;;;;;1.30;1.20;;;23.70;99.90;;;;;;5081804;28;20431;-72
2022/08/31 07:29:09;;;;;;;1.55;1.10;;;23.70;99.90;;;;;;5081505;28;20204;-71
2022/08/31 07:31:46;;;;;;;1.60;1.20;;;23.70;99.90;;;;;;5079234;28;20292;-72
2022/08/31 07:34:19;;;;;;;2.40;1.33;;;23.80;99.90;;;;;;5080247;28;20214;-71
2022/08/31 07:42:29;;;;;;;2.67;1.50;;;23.60;99.90;;;;;;5074257;28;20318;-72
2022/08/31 07:44:58;;;;;;;3.42;1.30;;;23.70;99.90;;;;;;5078937;28;20230;-72
2022/08/31 07:47:27;;;;;;;1.90;1.50;;;23.80;99.90;;;;;;5075762;28;20286;-72
2022/08/31 07:49:57;;;;;;;2.15;1.48;;;24.20;99.90;;;;;;5083270;28;20196;-73
2022/08/31 07:52:27;;;;;;;4.75;1.27;;;24.60;99.90;;;;;;5076263;28;20216;-71
2022/08/31 07:55:05;;;;;;;3.92;1.50;;;25.00;99.90;;;;;;5084804;28;20308;-72
2022/08/31 07:57:42;;;;;;;2.00;1.33;;;25.40;99.90;;;;;;5080891;28;20203;-73
2022/08/31 08:00:13;;;;;;;3.65;1.30;;;25.60;99.20;;;;;;5081449;28;20253;-72
2022/08/31 08:02:44;;;;;;;1.92;1.30;;;25.90;99.20;;;;;;5085696;28;20261;-72
2022/08/31 08:05:22;;;;;;;1.60;1.30;;;26.00;98.60;;;;;;5082490;28;20214;-73
2022/08/31 08:07:57;;;;;;;2.47;1.48;;;26.10;98.40;;;;;;5062934;28;20304;-74
2022/08/31 08:10:25;;;;;;;2.72;1.30;;;26.30;98.10;;;;;;5078651;28;20196;-71
2022/08/31 08:13:02;;;;;;;2.88;1.40;;;26.20;98.00;;;;;;5071888;28;20568;-73
2022/08/31 08:15:33;;;;;;;3.08;1.65;;;26.20;97.70;;;;;;5080344;28;20318;-73
2022/08/31 08:18:03;;;;;;;4.07;1.40;;;26.20;97.50;;;;;;5075970;28;20207;-72
2022/08/31 08:20:31;;;;;;;3.83;1.60;;;26.30;97.40;;;;;;5063815;28;20212;-75
2022/08/31 08:23:15;;;;;;;2.10;1.50;;;26.50;97.40;;;;;;5071340;28;20235;-70
2022/08/31 08:25:54;;;;;;;3.67;1.70;;;26.50;96.50;;;;;;5061457;28;20209;-73
2022/08/31 08:28:21;;;;;;;1.67;1.30;;;26.50;96.60;;;;;;5075862;28;20228;-70
2022/08/31 08:31:09;;;;;;;3.10;1.60;;;26.40;96.50;;;;;;5077009;28;20219;-72
2022/08/31 08:33:38;;;;;;;2.20;1.20;;;26.20;96.40;;;;;;5056886;28;20200;-73
2022/08/31 08:36:06;;;;;;;1.92;1.10;;;26.10;96.70;;;;;;5067167;28;20219;-70
2022/08/31 08:38:41;;;;;;;2.28;1.67;;;26.10;96.90;;;;;;5064162;28;20667;-71
2022/08/31 08:41:22;;;;;;;3.60;1.70;;;26.20;96.50;;;;;;5081786;28;20208;-72
2022/08/31 08:43:57;;;;;;;1.48;1.30;;;26.10;96.40;;;;;;5059567;28;20236;-72
2022/08/31 08:46:38;;;;;;;1.55;1.20;;;26.10;96.00;;;;;;5077304;28;20203;-71
2022/08/31 08:49:45;;;;;;;4.70;1.67;;;26.20;96.40;;;;;;5064777;28;20275;-71
2022/08/31 08:52:40;;;;;;;3.08;1.50;;;26.20;96.10;;;;;;5074804;28;20588;-72
2022/08/31 08:55:11;;;;;;;2.72;1.45;;;26.20;95.60;;;;;;5077463;28;20274;-71
2022/08/31 08:57:41;;;;;;;9.75;1.75;;;26.30;96.00;;;;;;5077113;28;20223;-72
2022/08/31 09:00:17;;;;;;;1.83;1.48;;;26.30;95.90;;;;;;5061488;28;20593;-71
2022/08/31 09:02:56;;;;;;;6.18;2.33;;;26.40;95.50;;;;;;5064935;28;20203;-73
2022/08/31 09:05:45;;;;;;;4.75;1.40;;;26.40;95.50;;;;;;5076322;28;20218;-71
2022/08/31 09:08:24;;;;;;;1.60;1.42;;;26.30;95.50;;;;;;5077815;28;20211;-71
2022/08/31 09:11:11;;;;;;;4.28;1.30;;;26.30;94.90;;;;;;5074831;28;20207;-72
2022/08/31 09:13:54;;;;;;;1.85;1.38;;;26.30;95.20;;;;;;5078081;28;20248;-72
2022/08/31 09:16:39;;;;;;;2.58;1.23;;;26.10;95.20;;;;;;5077197;28;20290;-72
2022/08/31 09:19:13;;;;;;;1.77;1.33;;;26.00;95.50;;;;;;5076819;28;20200;-72
2022/08/31 09:21:52;;;;;;;1.70;1.30;;;25.90;95.40;;;;;;5066739;28;20288;-72
2022/08/31 09:24:25;;;;;;;4.93;1.52;;;25.90;96.00;;;;;;5074445;28;20908;-71
2022/08/31 09:27:19;;;;;;;3.65;1.63;;;25.90;95.90;;;;;;5071514;28;20828;-73
2022/08/31 09:29:59;;;;;;;1.48;1.38;;;25.90;95.60;;;;;;5077240;28;20250;-71
2022/08/31 09:32:33;;;;;;;3.17;1.60;;;25.70;95.20;;;;;;5080885;28;20260;-72
2022/08/31 09:35:08;;;;;;;4.38;1.60;;;25.60;95.40;;;;;;5076158;28;20675;-71
2022/08/31 09:37:44;;;;;;;3.30;1.80;;;25.50;95.30;;;;;;5077087;28;20207;-71
2022/08/31 09:40:17;;;;;;;2.60;1.70;;;25.40;95.40;;;;;;5080272;28;20200;-72
2022/08/31 09:43:22;;;;;;;3.58;1.80;;;25.30;95.30;;;;;;5075313;28;20206;-71
2022/08/31 09:46:18;;;;;;;3.42;1.40;;;25.20;95.60;;;;;;5060701;28;20202;-74
2022/08/31 09:48:55;;;;;;;3.30;1.60;;;25.10;96.80;;;;;;5077730;28;20231;-73
2022/08/31 09:51:28;;;;;;;3.35;1.40;;;24.90;95.70;;;;;;5071965;28;20219;-74
2022/08/31 09:56:57;;;;;;;5.53;1.60;;;25.10;95.90;;;;;;5076008;28;20208;-74
2022/08/31 09:59:46;;;;;;;2.50;1.30;;;25.20;95.90;;;;;;5076003;28;20197;-74
2022/08/31 10:02:25;;;;;;;2.08;1.38;;;25.10;95.70;;;;;;5078395;28;20204;-75
2022/08/31 10:05:02;;;;;;;3.75;1.52;;;25.20;95.70;;;;;;5084590;28;20227;-73
2022/08/31 10:07:44;;;;;;;8.63;2.08;;;25.30;95.70;;;;;;5078380;28;20223;-73
2022/08/31 10:10:34;;;;;;;6.57;1.27;;;25.30;95.60;;;;;;5078526;28;20606;-73
2022/08/31 10:13:13;;;;;;;4.65;1.45;;;25.30;95.60;;;;;;5078072;28;20192;-74
2022/08/31 10:15:58;;;;;;;2.35;1.45;;;25.20;94.90;;;;;;5075665;28;20678;-72
2022/08/31 10:18:56;;;;;;;2.88;1.52;;;24.90;95.20;;;;;;5059679;28;20267;-73
2022/08/31 10:21:42;;;;;;;3.38;1.45;;;24.70;96.00;;;;;;5077104;28;20212;-73
2022/08/31 10:24:27;;;;;;;3.05;1.45;;;24.80;95.70;;;;;;5070181;28;20239;-74
2022/08/31 10:27:03;;;;;;;3.35;1.60;;;24.90;95.70;;;;;;5082742;28;21372;-72
2022/08/31 10:29:46;;;;;;;5.72;2.30;;;25.00;95.70;;;;;;5076966;28;21049;-73
2022/08/31 10:32:39;;;;;;;1.63;1.52;;;25.10;95.60;;;;;;5080746;28;20264;-72
2022/08/31 10:35:49;;;;;;;1.65;1.30;;;24.90;95.10;;;;;;5077613;28;20220;-73
2022/08/31 10:38:24;;;;;;;2.90;1.40;;;25.10;95.40;;;;;;5058876;28;20257;-72
2022/08/31 10:41:18;;;;;;;2.95;1.30;;;24.90;95.90;;;;;;5064371;28;20238;-74
2022/08/31 10:43:52;;;;;;;3.33;1.30;;;24.90;95.80;;;;;;5064529;28;20650;-74
2022/08/31 10:46:19;;;;;;;4.05;1.40;;;25.00;95.80;;;;;;5076792;28;20299;-73
2022/08/31 10:48:53;;;;;;;3.42;1.42;;;24.90;96.20;;;;;;5084437;28;20614;-73
2022/08/31 10:51:35;;;;;;;2.85;1.40;;;24.90;96.20;;;;;;5062254;28;20651;-73
2022/08/31 10:54:27;;;;;;;2.25;1.27;;;25.00;96.10;;;;;;5074883;28;20660;-73
2022/08/31 10:57:18;;;;;;;6.43;1.48;;;25.10;96.00;;;;;;5077941;28;20192;-73
2022/08/31 11:00:00;;;;;;;5.50;1.70;;;25.00;95.70;;;;;;5079068;28;20299;-73
2022/08/31 11:02:47;;;;;;;3.83;1.40;;;25.20;95.60;;;;;;5076717;28;20281;-72
2022/08/31 11:05:32;;;;;;;2.45;1.30;;;25.30;95.80;;;;;;5079054;28;20227;-72
2022/08/31 11:08:25;;;;;;;2.55;1.13;;;25.40;95.80;;;;;;5080723;28;20215;-74
2022/08/31 11:10:54;;;;;;;2.88;1.38;;;25.40;95.40;;;;;;5076051;28;20266;-73
2022/08/31 11:13:59;;;;;;;3.88;1.27;;;25.40;95.40;;;;;;5082737;28;20203;-72
2022/08/31 11:16:40;;;;;;;1.30;1.20;;;25.40;94.60;;;;;;5072997;28;20641;-73
2022/08/31 11:19:53;;;;;;;4.78;1.35;;;25.40;95.40;;;;;;5078865;28;20203;-74
2022/08/31 11:22:28;;;;;;;4.03;1.42;;;25.50;95.00;;;;;;5077739;28;20236;-72
2022/08/31 11:25:02;;;;;;;3.90;1.42;;;25.60;95.00;;;;;;5073700;28;20315;-74
2022/08/31 11:27:36;;;;;;;4.35;1.50;;;25.60;94.90;;;;;;5061093;28;21037;-74
2022/08/31 11:30:25;;;;;;;2.72;1.33;;;25.70;94.50;;;;;;5075023;28;20294;-74
2022/08/31 11:32:56;;;;;;;2.30;1.48;;;25.70;94.70;;;;;;5074960;28;20232;-77
2022/08/31 11:35:45;;;;;;;2.63;1.20;;;25.70;94.90;;;;;;5076094;28;20211;-72
2022/08/31 11:38:40;;;;;;;1.60;1.20;;;25.80;94.10;;;;;;5081886;28;20196;-74
2022/08/31 11:41:12;;;;;;;7.00;1.90;;;25.90;94.10;;;;;;5078221;28;20307;-72
2022/08/31 11:43:45;;;;;;;2.63;1.33;;;25.90;93.50;;;;;;5074429;28;20714;-73
2022/08/31 11:46:39;;;;;;;3.78;1.40;;;25.80;93.50;;;;;;5076718;28;20216;-74
2022/08/31 11:49:09;;;;;;;2.53;1.33;;;25.80;93.30;;;;;;5076878;28;20215;-73
2022/08/31 11:51:44;;;;;;;1.55;1.08;;;25.70;93.00;;;;;;5075761;28;20213;-73
2022/08/31 11:54:12;;;;;;;5.05;1.50;;;25.70;93.10;;;;;;5083381;28;20215;-74
2022/08/31 11:56:46;;;;;;;3.22;1.52;;;25.90;94.00;;;;;;5075163;28;20291;-72
2022/08/31 11:59:34;;;;;;;4.38;1.60;;;25.90;93.60;;;;;;5076234;28;20260;-73
2022/08/31 12:02:24;;;;;;;2.55;1.38;;;26.00;93.50;;;;;;5063439;28;20283;-74
2022/08/31 12:04:51;;;;;;;2.33;1.38;;;26.10;92.90;;;;;;5069394;28;20236;-74
2022/08/31 12:07:27;;;;;;;4.38;1.67;;;26.00;93.20;;;;;;5074857;28;20263;-73
2022/08/31 12:10:26;;;;;;;4.20;1.23;;;26.20;93.50;;;;;;5077470;28;20613;-73
2022/08/31 12:13:17;;;;;;;6.82;1.58;;;26.30;93.60;;;;;;5076956;28;20203;-74
2022/08/31 12:16:03;;;;;;;3.17;1.40;;;26.50;93.10;;;;;;5082294;28;20204;-74
2022/08/31 12:19:08;;;;;;;3.17;1.40;;;26.50;92.00;;;;;;5075165;28;20218;-74
2022/08/31 12:24:55;;;;;;;2.28;1.30;;;26.30;92.50;;;;;;5072953;28;20232;-74
2022/08/31 12:27:31;;;;;;;3.20;1.35;;;26.30;93.00;;;;;;5078146;28;20692;-73
2022/08/31 12:30:24;;;;;;;3.80;1.20;;;26.40;93.20;;;;;;5076270;28;20211;-73
2022/08/31 12:33:15;;;;;;;3.17;1.38;;;26.60;93.00;;;;;;5079992;28;20204;-73
2022/08/31 12:35:48;;;;;;;2.88;1.48;;;26.50;92.20;;;;;;5074785;28;20204;-73
2022/08/31 12:38:21;;;;;;;2.58;1.40;;;26.30;91.80;;;;;;5078848;28;20562;-74
2022/08/31 12:40:55;;;;;;;3.35;1.20;;;26.10;91.80;;;;;;5073309;28;20237;-73
2022/08/31 12:43:24;;;;;;;2.15;1.42;;;26.10;92.00;;;;;;5080091;28;20204;-72
2022/08/31 12:46:00;;;;;;;4.03;1.30;;;26.20;91.80;;;;;;5055164;28;20629;-73
2022/08/31 12:49:00;;;;;;;2.47;1.25;;;26.10;91.30;;;;;;5078326;28;20524;-74
2022/08/31 12:51:38;;;;;;;5.25;1.60;;;26.10;91.10;;;;;;5077190;28;20224;-74
2022/08/31 12:54:21;;;;;;;2.38;1.40;;;26.00;91.40;;;;;;5076561;28;20204;-72
2022/08/31 12:57:08;;;;;;;2.25;1.08;;;26.00;92.20;;;;;;5070409;28;20687;-73
2022/08/31 13:00:08;;;;;;;6.03;1.30;;;26.00;92.30;;;;;;5075950;28;20654;-76
2022/08/31 13:02:44;;;;;;;3.10;1.40;;;26.30;92.10;;;;;;5073189;28;20679;-73
2022/08/31 13:05:21;;;;;;;2.88;1.60;;;26.40;92.20;;;;;;5073709;28;20224;-73
2022/08/31 13:07:49;;;;;;;2.30;1.10;;;26.60;92.10;;;;;;5075960;28;20595;-73
2022/08/31 13:10:35;;;;;;;4.35;1.08;;;26.50;91.30;;;;;;5077177;28;20730;-73
2022/08/31 13:13:07;;;;;;;3.78;1.10;;;26.00;90.80;;;;;;5074266;28;20222;-73
2022/08/31 13:15:42;;;;;;;5.20;1.40;;;26.70;91.40;;;;;;5059057;28;20269;-73
2022/08/31 13:18:13;;;;;;;1.88;1.00;;;26.80;91.60;;;;;;5076442;28;20660;-75
2022/08/31 13:20:42;;;;;;;1.98;1.05;;;26.80;91.40;;;;;;5076964;28;20246;-74
2022/08/31 13:23:13;;;;;;;3.45;1.40;;;26.80;91.50;;;;;;5077231;28;20330;-73
2022/08/31 13:25:41;;;;;;;2.25;1.40;;;26.70;91.30;;;;;;5072926;28;20239;-74
2022/08/31 13:28:13;;;;;;;3.30;1.38;;;26.70;91.50;;;;;;5074683;28;20232;-74
2022/08/31 13:30:42;;;;;;;2.72;0.95;;;26.80;91.00;;;;;;5072925;28;20266;-73
2022/08/31 13:33:29;;;;;;;1.38;0.85;;;27.00;91.10;;;;;;5072562;28;20235;-72
2022/08/31 13:36:31;;;;;;;5.95;1.40;;;27.10;90.90;;;;;;5077068;28;20214;-74